sensor_id;sensor_type;location;lat;lon;timestamp;P1;durP1;ratioP1;P2;durP2;ratioP2
691;SDS011;70475;50.084;8.576;2024-03-02T00:00:54;5.47;;;3.20;;
691;SDS011;70475;50.084;8.576;2024-03-02T00:03:37;6.63;;;3.20;;
691;SDS011;70475;50.084;8.576;2024-03-02T00:06:46;7.17;;;3.60;;
691;SDS011;70475;50.084;8.576;2024-03-02T00:09:06;7.10;;;3.00;;
691;SDS011;70475;50.084;8.576;2024-03-02T00:11:37;4.60;;;3.33;;
691;SDS011;70475;50.084;8.576;2024-03-02T00:14:06;5.70;;;4.20;;
691;SDS011;70475;50.084;8.576;2024-03-02T00:16:34;5.47;;;3.87;;
691;SDS011;70475;50.084;8.576;2024-03-02T00:19:03;4.83;;;4.33;;
691;SDS011;70475;50.084;8.576;2024-03-02T00:21:35;3.93;;;3.10;;
691;SDS011;70475;50.084;8.576;2024-03-02T00:24:07;6.63;;;5.37;;
691;SDS011;70475;50.084;8.576;2024-03-02T00:26:47;4.40;;;2.47;;
691;SDS011;70475;50.084;8.576;2024-03-02T00:29:15;3.63;;;2.70;;
691;SDS011;70475;50.084;8.576;2024-03-02T00:31:45;9.53;;;4.57;;
691;SDS011;70475;50.084;8.576;2024-03-02T00:34:15;14.13;;;4.77;;
691;SDS011;70475;50.084;8.576;2024-03-02T00:36:43;4.33;;;3.37;;
691;SDS011;70475;50.084;8.576;2024-03-02T00:39:13;6.70;;;3.37;;
691;SDS011;70475;50.084;8.576;2024-03-02T00:41:43;4.30;;;3.27;;
691;SDS011;70475;50.084;8.576;2024-03-02T00:44:15;5.50;;;3.90;;
691;SDS011;70475;50.084;8.576;2024-03-02T00:46:52;3.53;;;2.77;;
691;SDS011;70475;50.084;8.576;2024-03-02T00:49:21;3.33;;;2.07;;
691;SDS011;70475;50.084;8.576;2024-03-02T00:51:50;5.33;;;4.13;;
691;SDS011;70475;50.084;8.576;2024-03-02T00:54:21;5.73;;;4.37;;
691;SDS011;70475;50.084;8.576;2024-03-02T00:56:51;3.93;;;3.03;;
691;SDS011;70475;50.084;8.576;2024-03-02T00:59:21;4.10;;;1.93;;
691;SDS011;70475;50.084;8.576;2024-03-02T01:01:50;5.40;;;4.17;;
691;SDS011;70475;50.084;8.576;2024-03-02T01:04:18;7.55;;;3.08;;
691;SDS011;70475;50.084;8.576;2024-03-02T01:06:45;4.00;;;2.20;;
691;SDS011;70475;50.084;8.576;2024-03-02T01:09:14;6.77;;;4.90;;
691;SDS011;70475;50.084;8.576;2024-03-02T01:18:43;3.53;;;2.33;;
691;SDS011;70475;50.084;8.576;2024-03-02T01:21:22;3.40;;;3.07;;
691;SDS011;70475;50.084;8.576;2024-03-02T01:23:52;6.03;;;3.47;;
691;SDS011;70475;50.084;8.576;2024-03-02T01:26:52;4.17;;;2.00;;
691;SDS011;70475;50.084;8.576;2024-03-02T01:29:53;2.60;;;2.40;;
691;SDS011;70475;50.084;8.576;2024-03-02T01:39:47;3.13;;;2.90;;
691;SDS011;70475;50.084;8.576;2024-03-02T01:42:36;4.00;;;3.00;;
691;SDS011;70475;50.084;8.576;2024-03-02T01:45:04;4.63;;;4.07;;
691;SDS011;70475;50.084;8.576;2024-03-02T01:47:33;7.57;;;4.30;;
691;SDS011;70475;50.084;8.576;2024-03-02T01:50:01;2.70;;;2.40;;
691;SDS011;70475;50.084;8.576;2024-03-02T01:52:31;4.57;;;3.10;;
691;SDS011;70475;50.084;8.576;2024-03-02T01:54:59;4.97;;;4.47;;
691;SDS011;70475;50.084;8.576;2024-03-02T01:57:26;3.00;;;2.33;;
691;SDS011;70475;50.084;8.576;2024-03-02T01:59:54;3.30;;;1.77;;
691;SDS011;70475;50.084;8.576;2024-03-02T02:02:22;3.37;;;2.27;;
691;SDS011;70475;50.084;8.576;2024-03-02T02:04:50;7.03;;;3.53;;
691;SDS011;70475;50.084;8.576;2024-03-02T02:07:18;3.90;;;3.50;;
691;SDS011;70475;50.084;8.576;2024-03-02T02:09:47;4.63;;;4.00;;
691;SDS011;70475;50.084;8.576;2024-03-02T02:12:15;4.00;;;2.80;;
691;SDS011;70475;50.084;8.576;2024-03-02T02:14:46;3.10;;;2.30;;
691;SDS011;70475;50.084;8.576;2024-03-02T02:17:15;6.67;;;4.60;;
691;SDS011;70475;50.084;8.576;2024-03-02T02:19:43;5.87;;;2.47;;
691;SDS011;70475;50.084;8.576;2024-03-02T02:22:12;4.03;;;3.10;;
691;SDS011;70475;50.084;8.576;2024-03-02T02:24:39;7.03;;;6.43;;
691;SDS011;70475;50.084;8.576;2024-03-02T02:27:08;3.27;;;2.97;;
691;SDS011;70475;50.084;8.576;2024-03-02T02:29:36;5.90;;;3.23;;
691;SDS011;70475;50.084;8.576;2024-03-02T02:32:04;4.40;;;2.97;;
691;SDS011;70475;50.084;8.576;2024-03-02T02:34:33;3.97;;;3.57;;
691;SDS011;70475;50.084;8.576;2024-03-02T02:37:00;4.57;;;2.63;;
691;SDS011;70475;50.084;8.576;2024-03-02T02:39:30;5.03;;;3.50;;
691;SDS011;70475;50.084;8.576;2024-03-02T02:41:58;7.93;;;5.05;;
691;SDS011;70475;50.084;8.576;2024-03-02T02:44:27;3.47;;;2.35;;
691;SDS011;70475;50.084;8.576;2024-03-02T02:46:55;2.85;;;2.60;;
691;SDS011;70475;50.084;8.576;2024-03-02T02:49:22;3.17;;;2.25;;
691;SDS011;70475;50.084;8.576;2024-03-02T02:51:50;3.60;;;3.07;;
691;SDS011;70475;50.084;8.576;2024-03-02T02:54:17;5.00;;;3.43;;
691;SDS011;70475;50.084;8.576;2024-03-02T02:56:46;4.33;;;3.90;;
691;SDS011;70475;50.084;8.576;2024-03-02T02:59:14;6.38;;;4.50;;
691;SDS011;70475;50.084;8.576;2024-03-02T03:01:41;5.57;;;4.00;;
691;SDS011;70475;50.084;8.576;2024-03-02T03:04:10;2.70;;;2.50;;
691;SDS011;70475;50.084;8.576;2024-03-02T03:06:38;12.30;;;2.90;;
691;SDS011;70475;50.084;8.576;2024-03-02T03:09:05;3.67;;;1.83;;
691;SDS011;70475;50.084;8.576;2024-03-02T03:11:33;6.00;;;2.43;;
691;SDS011;70475;50.084;8.576;2024-03-02T03:14:02;4.73;;;3.07;;
691;SDS011;70475;50.084;8.576;2024-03-02T03:16:31;6.03;;;3.13;;
691;SDS011;70475;50.084;8.576;2024-03-02T03:18:58;3.97;;;2.30;;
691;SDS011;70475;50.084;8.576;2024-03-02T03:21:26;3.47;;;2.77;;
691;SDS011;70475;50.084;8.576;2024-03-02T03:23:53;3.07;;;2.73;;
691;SDS011;70475;50.084;8.576;2024-03-02T03:26:21;5.72;;;3.95;;
691;SDS011;70475;50.084;8.576;2024-03-02T03:28:49;4.67;;;3.10;;
691;SDS011;70475;50.084;8.576;2024-03-02T03:31:18;5.33;;;3.70;;
691;SDS011;70475;50.084;8.576;2024-03-02T03:33:45;5.80;;;4.80;;
691;SDS011;70475;50.084;8.576;2024-03-02T03:36:13;4.83;;;3.53;;
691;SDS011;70475;50.084;8.576;2024-03-02T03:38:40;5.88;;;4.00;;
691;SDS011;70475;50.084;8.576;2024-03-02T03:41:08;4.97;;;3.60;;
691;SDS011;70475;50.084;8.576;2024-03-02T03:43:35;9.17;;;3.83;;
691;SDS011;70475;50.084;8.576;2024-03-02T03:46:03;4.87;;;4.37;;
691;SDS011;70475;50.084;8.576;2024-03-02T03:48:32;7.43;;;6.13;;
691;SDS011;70475;50.084;8.576;2024-03-02T03:51:00;5.07;;;3.37;;
691;SDS011;70475;50.084;8.576;2024-03-02T03:53:27;5.30;;;4.10;;
691;SDS011;70475;50.084;8.576;2024-03-02T03:55:55;4.07;;;3.07;;
691;SDS011;70475;50.084;8.576;2024-03-02T03:58:22;4.90;;;4.47;;
691;SDS011;70475;50.084;8.576;2024-03-02T04:00:50;5.20;;;3.63;;
691;SDS011;70475;50.084;8.576;2024-03-02T04:03:17;3.83;;;3.50;;
691;SDS011;70475;50.084;8.576;2024-03-02T04:05:46;3.93;;;3.53;;
691;SDS011;70475;50.084;8.576;2024-03-02T04:08:14;7.20;;;3.47;;
691;SDS011;70475;50.084;8.576;2024-03-02T04:10:41;7.30;;;3.03;;
691;SDS011;70475;50.084;8.576;2024-03-02T04:13:09;5.00;;;3.70;;
691;SDS011;70475;50.084;8.576;2024-03-02T04:15:37;8.13;;;4.97;;
691;SDS011;70475;50.084;8.576;2024-03-02T04:18:05;5.57;;;4.27;;
691;SDS011;70475;50.084;8.576;2024-03-02T04:20:32;4.30;;;3.90;;
691;SDS011;70475;50.084;8.576;2024-03-02T04:23:01;3.40;;;2.80;;
691;SDS011;70475;50.084;8.576;2024-03-02T04:25:29;7.27;;;5.13;;
691;SDS011;70475;50.084;8.576;2024-03-02T04:27:56;5.00;;;3.67;;
691;SDS011;70475;50.084;8.576;2024-03-02T04:30:24;6.33;;;5.33;;
691;SDS011;70475;50.084;8.576;2024-03-02T04:32:53;14.00;;;5.60;;
691;SDS011;70475;50.084;8.576;2024-03-02T04:35:20;4.03;;;2.73;;
691;SDS011;70475;50.084;8.576;2024-03-02T04:37:48;3.97;;;3.57;;
691;SDS011;70475;50.084;8.576;2024-03-02T04:40:17;6.03;;;5.53;;
691;SDS011;70475;50.084;8.576;2024-03-02T04:42:45;5.47;;;3.80;;
691;SDS011;70475;50.084;8.576;2024-03-02T04:45:12;4.60;;;2.80;;
691;SDS011;70475;50.084;8.576;2024-03-02T04:47:40;5.90;;;4.27;;
691;SDS011;70475;50.084;8.576;2024-03-02T04:50:07;5.53;;;4.37;;
691;SDS011;70475;50.084;8.576;2024-03-02T04:52:36;6.40;;;4.00;;
691;SDS011;70475;50.084;8.576;2024-03-02T04:55:04;6.00;;;4.20;;
691;SDS011;70475;50.084;8.576;2024-03-02T04:57:52;4.30;;;2.73;;
691;SDS011;70475;50.084;8.576;2024-03-02T05:00:21;3.63;;;3.20;;
691;SDS011;70475;50.084;8.576;2024-03-02T05:02:49;7.53;;;3.07;;
691;SDS011;70475;50.084;8.576;2024-03-02T05:05:17;4.60;;;3.87;;
691;SDS011;70475;50.084;8.576;2024-03-02T05:07:45;6.77;;;6.17;;
691;SDS011;70475;50.084;8.576;2024-03-02T05:10:12;10.43;;;5.83;;
691;SDS011;70475;50.084;8.576;2024-03-02T05:12:40;8.38;;;4.30;;
691;SDS011;70475;50.084;8.576;2024-03-02T05:15:24;4.13;;;3.80;;
691;SDS011;70475;50.084;8.576;2024-03-02T05:17:52;5.47;;;4.53;;
691;SDS011;70475;50.084;8.576;2024-03-02T05:20:20;4.13;;;3.73;;
691;SDS011;70475;50.084;8.576;2024-03-02T05:22:47;6.50;;;4.67;;
691;SDS011;70475;50.084;8.576;2024-03-02T05:25:15;6.67;;;5.93;;
691;SDS011;70475;50.084;8.576;2024-03-02T05:27:43;9.40;;;6.67;;
691;SDS011;70475;50.084;8.576;2024-03-02T05:30:11;5.53;;;4.60;;
691;SDS011;70475;50.084;8.576;2024-03-02T05:32:41;5.33;;;4.30;;
691;SDS011;70475;50.084;8.576;2024-03-02T05:35:08;4.67;;;3.50;;
691;SDS011;70475;50.084;8.576;2024-03-02T05:37:37;6.17;;;4.80;;
691;SDS011;70475;50.084;8.576;2024-03-02T05:40:05;6.97;;;4.47;;
691;SDS011;70475;50.084;8.576;2024-03-02T05:42:34;2.90;;;2.50;;
691;SDS011;70475;50.084;8.576;2024-03-02T05:45:02;5.80;;;3.87;;
691;SDS011;70475;50.084;8.576;2024-03-02T05:47:29;4.80;;;3.40;;
691;SDS011;70475;50.084;8.576;2024-03-02T05:49:58;5.93;;;4.07;;
691;SDS011;70475;50.084;8.576;2024-03-02T05:52:26;7.70;;;4.03;;
691;SDS011;70475;50.084;8.576;2024-03-02T05:54:54;5.13;;;4.18;;
691;SDS011;70475;50.084;8.576;2024-03-02T05:57:21;4.77;;;4.33;;
691;SDS011;70475;50.084;8.576;2024-03-02T06:00:11;3.23;;;2.83;;
691;SDS011;70475;50.084;8.576;2024-03-02T06:02:39;4.20;;;3.77;;
691;SDS011;70475;50.084;8.576;2024-03-02T06:05:09;6.50;;;4.53;;
691;SDS011;70475;50.084;8.576;2024-03-02T06:07:37;5.87;;;3.90;;
691;SDS011;70475;50.084;8.576;2024-03-02T06:10:05;5.43;;;3.77;;
691;SDS011;70475;50.084;8.576;2024-03-02T06:12:39;5.40;;;4.83;;
691;SDS011;70475;50.084;8.576;2024-03-02T06:15:08;6.97;;;5.17;;
691;SDS011;70475;50.084;8.576;2024-03-02T06:17:36;4.87;;;4.37;;
691;SDS011;70475;50.084;8.576;2024-03-02T06:20:04;12.13;;;6.20;;
691;SDS011;70475;50.084;8.576;2024-03-02T06:22:36;6.43;;;5.93;;
691;SDS011;70475;50.084;8.576;2024-03-02T06:25:04;7.43;;;3.70;;
691;SDS011;70475;50.084;8.576;2024-03-02T06:27:31;5.90;;;3.90;;
691;SDS011;70475;50.084;8.576;2024-03-02T06:29:59;5.40;;;4.27;;
691;SDS011;70475;50.084;8.576;2024-03-02T06:32:26;5.63;;;4.07;;
691;SDS011;70475;50.084;8.576;2024-03-02T06:34:53;9.80;;;4.83;;
691;SDS011;70475;50.084;8.576;2024-03-02T06:37:21;6.03;;;4.80;;
691;SDS011;70475;50.084;8.576;2024-03-02T06:39:50;6.50;;;4.43;;
691;SDS011;70475;50.084;8.576;2024-03-02T06:42:17;6.13;;;4.50;;
691;SDS011;70475;50.084;8.576;2024-03-02T06:44:45;6.27;;;4.93;;
691;SDS011;70475;50.084;8.576;2024-03-02T06:47:13;7.57;;;5.73;;
691;SDS011;70475;50.084;8.576;2024-03-02T06:49:43;6.13;;;5.20;;
691;SDS011;70475;50.084;8.576;2024-03-02T06:52:10;9.00;;;5.70;;
691;SDS011;70475;50.084;8.576;2024-03-02T06:54:38;4.63;;;4.10;;
691;SDS011;70475;50.084;8.576;2024-03-02T06:57:07;8.07;;;5.30;;
691;SDS011;70475;50.084;8.576;2024-03-02T06:59:35;5.53;;;5.03;;
691;SDS011;70475;50.084;8.576;2024-03-02T07:02:02;6.43;;;5.60;;
691;SDS011;70475;50.084;8.576;2024-03-02T07:04:30;11.97;;;7.03;;
691;SDS011;70475;50.084;8.576;2024-03-02T07:06:58;5.43;;;4.80;;
691;SDS011;70475;50.084;8.576;2024-03-02T07:09:26;11.60;;;5.50;;
691;SDS011;70475;50.084;8.576;2024-03-02T07:11:53;8.93;;;6.70;;
691;SDS011;70475;50.084;8.576;2024-03-02T07:14:22;9.10;;;5.70;;
691;SDS011;70475;50.084;8.576;2024-03-02T07:17:13;12.33;;;7.13;;
691;SDS011;70475;50.084;8.576;2024-03-02T07:19:40;12.07;;;4.87;;
691;SDS011;70475;50.084;8.576;2024-03-02T07:22:08;4.93;;;3.80;;
691;SDS011;70475;50.084;8.576;2024-03-02T07:24:40;6.30;;;4.57;;
691;SDS011;70475;50.084;8.576;2024-03-02T07:27:08;7.83;;;6.37;;
691;SDS011;70475;50.084;8.576;2024-03-02T07:29:38;6.40;;;4.80;;
691;SDS011;70475;50.084;8.576;2024-03-02T07:32:06;11.63;;;8.17;;
691;SDS011;70475;50.084;8.576;2024-03-02T07:34:34;5.23;;;4.00;;
691;SDS011;70475;50.084;8.576;2024-03-02T07:37:02;9.70;;;5.90;;
691;SDS011;70475;50.084;8.576;2024-03-02T07:39:30;7.70;;;5.57;;
691;SDS011;70475;50.084;8.576;2024-03-02T07:41:58;7.80;;;6.70;;
691;SDS011;70475;50.084;8.576;2024-03-02T07:44:27;4.67;;;4.27;;
691;SDS011;70475;50.084;8.576;2024-03-02T07:46:56;9.27;;;6.00;;
691;SDS011;70475;50.084;8.576;2024-03-02T07:49:23;10.90;;;5.90;;
691;SDS011;70475;50.084;8.576;2024-03-02T07:51:53;10.57;;;4.43;;
691;SDS011;70475;50.084;8.576;2024-03-02T07:54:20;11.47;;;7.20;;
691;SDS011;70475;50.084;8.576;2024-03-02T07:56:48;9.77;;;7.93;;
691;SDS011;70475;50.084;8.576;2024-03-02T07:59:16;19.37;;;9.07;;
691;SDS011;70475;50.084;8.576;2024-03-02T08:01:43;11.63;;;9.30;;
691;SDS011;70475;50.084;8.576;2024-03-02T08:04:13;16.60;;;9.00;;
691;SDS011;70475;50.084;8.576;2024-03-02T08:06:40;15.10;;;9.87;;
691;SDS011;70475;50.084;8.576;2024-03-02T08:09:08;18.73;;;11.97;;
691;SDS011;70475;50.084;8.576;2024-03-02T08:11:36;12.60;;;9.97;;
691;SDS011;70475;50.084;8.576;2024-03-02T08:14:05;19.33;;;9.70;;
691;SDS011;70475;50.084;8.576;2024-03-02T08:16:32;18.87;;;14.70;;
691;SDS011;70475;50.084;8.576;2024-03-02T08:19:00;18.97;;;11.63;;
691;SDS011;70475;50.084;8.576;2024-03-02T08:21:31;13.43;;;10.00;;
691;SDS011;70475;50.084;8.576;2024-03-02T08:24:01;16.93;;;11.97;;
691;SDS011;70475;50.084;8.576;2024-03-02T08:26:29;14.40;;;9.10;;
691;SDS011;70475;50.084;8.576;2024-03-02T08:28:58;19.10;;;13.10;;
691;SDS011;70475;50.084;8.576;2024-03-02T08:31:27;18.80;;;12.57;;
691;SDS011;70475;50.084;8.576;2024-03-02T08:33:55;23.33;;;10.20;;
691;SDS011;70475;50.084;8.576;2024-03-02T08:36:25;14.07;;;9.10;;
691;SDS011;70475;50.084;8.576;2024-03-02T08:38:54;12.70;;;9.23;;
691;SDS011;70475;50.084;8.576;2024-03-02T08:41:22;14.47;;;10.23;;
691;SDS011;70475;50.084;8.576;2024-03-02T08:43:49;14.73;;;9.20;;
691;SDS011;70475;50.084;8.576;2024-03-02T08:46:17;13.57;;;10.57;;
691;SDS011;70475;50.084;8.576;2024-03-02T08:48:44;15.17;;;9.67;;
691;SDS011;70475;50.084;8.576;2024-03-02T08:51:12;10.90;;;9.60;;
691;SDS011;70475;50.084;8.576;2024-03-02T08:53:39;17.57;;;11.00;;
691;SDS011;70475;50.084;8.576;2024-03-02T08:56:08;12.93;;;8.60;;
691;SDS011;70475;50.084;8.576;2024-03-02T08:58:36;20.90;;;11.60;;
691;SDS011;70475;50.084;8.576;2024-03-02T09:01:03;16.93;;;11.23;;
691;SDS011;70475;50.084;8.576;2024-03-02T09:03:33;15.80;;;9.10;;
691;SDS011;70475;50.084;8.576;2024-03-02T09:06:01;19.80;;;11.30;;
691;SDS011;70475;50.084;8.576;2024-03-02T09:08:29;13.43;;;8.60;;
691;SDS011;70475;50.084;8.576;2024-03-02T09:10:56;14.67;;;7.67;;
691;SDS011;70475;50.084;8.576;2024-03-02T09:13:25;13.83;;;8.90;;
691;SDS011;70475;50.084;8.576;2024-03-02T09:15:53;11.53;;;6.37;;
691;SDS011;70475;50.084;8.576;2024-03-02T09:18:21;22.77;;;8.70;;
691;SDS011;70475;50.084;8.576;2024-03-02T09:20:48;9.43;;;6.13;;
691;SDS011;70475;50.084;8.576;2024-03-02T09:23:16;10.43;;;6.67;;
691;SDS011;70475;50.084;8.576;2024-03-02T09:25:44;17.10;;;8.17;;
691;SDS011;70475;50.084;8.576;2024-03-02T09:28:11;10.33;;;6.67;;
691;SDS011;70475;50.084;8.576;2024-03-02T09:30:40;10.53;;;7.63;;
691;SDS011;70475;50.084;8.576;2024-03-02T09:33:08;20.80;;;7.37;;
691;SDS011;70475;50.084;8.576;2024-03-02T09:35:38;11.50;;;5.67;;
691;SDS011;70475;50.084;8.576;2024-03-02T09:38:06;10.40;;;6.17;;
691;SDS011;70475;50.084;8.576;2024-03-02T09:40:34;9.37;;;5.57;;
691;SDS011;70475;50.084;8.576;2024-03-02T09:43:02;10.17;;;6.63;;
691;SDS011;70475;50.084;8.576;2024-03-02T09:45:30;12.53;;;6.50;;
691;SDS011;70475;50.084;8.576;2024-03-02T09:47:59;12.43;;;6.80;;
691;SDS011;70475;50.084;8.576;2024-03-02T09:50:27;9.70;;;7.93;;
691;SDS011;70475;50.084;8.576;2024-03-02T09:52:54;9.17;;;6.07;;
691;SDS011;70475;50.084;8.576;2024-03-02T09:55:25;6.73;;;5.10;;
691;SDS011;70475;50.084;8.576;2024-03-02T09:57:56;8.13;;;5.90;;
691;SDS011;70475;50.084;8.576;2024-03-02T10:00:23;10.10;;;5.43;;
691;SDS011;70475;50.084;8.576;2024-03-02T10:02:51;9.37;;;5.90;;
691;SDS011;70475;50.084;8.576;2024-03-02T10:05:26;8.00;;;5.80;;
691;SDS011;70475;50.084;8.576;2024-03-02T10:07:58;10.10;;;6.10;;
691;SDS011;70475;50.084;8.576;2024-03-02T10:10:34;5.23;;;4.10;;
691;SDS011;70475;50.084;8.576;2024-03-02T10:13:06;11.37;;;5.57;;
691;SDS011;70475;50.084;8.576;2024-03-02T10:15:35;10.90;;;5.70;;
691;SDS011;70475;50.084;8.576;2024-03-02T10:18:03;8.13;;;4.90;;
691;SDS011;70475;50.084;8.576;2024-03-02T10:20:33;6.83;;;5.20;;
691;SDS011;70475;50.084;8.576;2024-03-02T10:23:09;5.10;;;4.47;;
691;SDS011;70475;50.084;8.576;2024-03-02T10:25:38;7.10;;;5.50;;
691;SDS011;70475;50.084;8.576;2024-03-02T10:28:20;11.07;;;6.20;;
691;SDS011;70475;50.084;8.576;2024-03-02T10:30:47;9.60;;;5.60;;
691;SDS011;70475;50.084;8.576;2024-03-02T10:33:17;10.47;;;6.30;;
691;SDS011;70475;50.084;8.576;2024-03-02T10:35:46;9.20;;;5.43;;
691;SDS011;70475;50.084;8.576;2024-03-02T10:38:15;7.33;;;5.57;;
691;SDS011;70475;50.084;8.576;2024-03-02T10:40:46;10.40;;;5.63;;
691;SDS011;70475;50.084;8.576;2024-03-02T10:43:14;8.40;;;6.33;;
691;SDS011;70475;50.084;8.576;2024-03-02T10:45:42;6.70;;;4.93;;
691;SDS011;70475;50.084;8.576;2024-03-02T10:48:11;9.17;;;5.60;;
691;SDS011;70475;50.084;8.576;2024-03-02T10:50:39;7.37;;;5.60;;
691;SDS011;70475;50.084;8.576;2024-03-02T10:53:07;6.03;;;3.67;;
691;SDS011;70475;50.084;8.576;2024-03-02T10:55:35;8.80;;;6.20;;
691;SDS011;70475;50.084;8.576;2024-03-02T10:58:04;6.73;;;4.90;;
691;SDS011;70475;50.084;8.576;2024-03-02T11:00:33;8.20;;;5.63;;
691;SDS011;70475;50.084;8.576;2024-03-02T11:03:05;10.47;;;5.87;;
691;SDS011;70475;50.084;8.576;2024-03-02T11:05:36;8.27;;;5.07;;
691;SDS011;70475;50.084;8.576;2024-03-02T11:08:06;9.27;;;5.23;;
691;SDS011;70475;50.084;8.576;2024-03-02T11:10:36;5.90;;;5.33;;
691;SDS011;70475;50.084;8.576;2024-03-02T11:13:09;6.90;;;4.90;;
691;SDS011;70475;50.084;8.576;2024-03-02T11:15:39;8.77;;;5.33;;
691;SDS011;70475;50.084;8.576;2024-03-02T11:18:07;6.10;;;4.80;;
691;SDS011;70475;50.084;8.576;2024-03-02T11:20:36;7.30;;;3.93;;
691;SDS011;70475;50.084;8.576;2024-03-02T11:23:05;7.80;;;6.10;;
691;SDS011;70475;50.084;8.576;2024-03-02T11:25:35;4.77;;;4.30;;
691;SDS011;70475;50.084;8.576;2024-03-02T11:28:05;7.87;;;3.70;;
691;SDS011;70475;50.084;8.576;2024-03-02T11:30:51;7.90;;;4.63;;
691;SDS011;70475;50.084;8.576;2024-03-02T11:33:22;6.37;;;4.33;;
691;SDS011;70475;50.084;8.576;2024-03-02T11:35:53;6.23;;;3.90;;
691;SDS011;70475;50.084;8.576;2024-03-02T11:38:28;4.80;;;3.30;;
691;SDS011;70475;50.084;8.576;2024-03-02T11:40:59;11.30;;;4.57;;
691;SDS011;70475;50.084;8.576;2024-03-02T11:43:27;3.03;;;2.43;;
691;SDS011;70475;50.084;8.576;2024-03-02T11:45:56;5.87;;;4.00;;
691;SDS011;70475;50.084;8.576;2024-03-02T11:48:25;6.07;;;4.00;;
691;SDS011;70475;50.084;8.576;2024-03-02T11:50:54;5.07;;;3.13;;
691;SDS011;70475;50.084;8.576;2024-03-02T11:53:26;6.13;;;3.70;;
691;SDS011;70475;50.084;8.576;2024-03-02T11:55:58;5.10;;;3.40;;
691;SDS011;70475;50.084;8.576;2024-03-02T11:58:27;6.43;;;3.70;;
691;SDS011;70475;50.084;8.576;2024-03-02T12:00:55;3.97;;;2.90;;
691;SDS011;70475;50.084;8.576;2024-03-02T12:03:25;10.53;;;4.70;;
691;SDS011;70475;50.084;8.576;2024-03-02T12:05:54;11.33;;;4.60;;
691;SDS011;70475;50.084;8.576;2024-03-02T12:08:22;4.53;;;3.33;;
691;SDS011;70475;50.084;8.576;2024-03-02T12:10:56;6.57;;;4.03;;
691;SDS011;70475;50.084;8.576;2024-03-02T12:13:26;5.57;;;4.00;;
691;SDS011;70475;50.084;8.576;2024-03-02T12:15:54;11.97;;;5.10;;
691;SDS011;70475;50.084;8.576;2024-03-02T12:18:23;5.83;;;4.03;;
691;SDS011;70475;50.084;8.576;2024-03-02T12:20:51;10.10;;;4.97;;
691;SDS011;70475;50.084;8.576;2024-03-02T12:23:22;7.30;;;4.00;;
691;SDS011;70475;50.084;8.576;2024-03-02T12:25:50;5.20;;;4.20;;
691;SDS011;70475;50.084;8.576;2024-03-02T12:28:18;5.50;;;3.07;;
691;SDS011;70475;50.084;8.576;2024-03-02T12:30:48;6.87;;;3.67;;
691;SDS011;70475;50.084;8.576;2024-03-02T12:33:16;4.90;;;3.50;;
691;SDS011;70475;50.084;8.576;2024-03-02T12:35:44;6.70;;;3.50;;
691;SDS011;70475;50.084;8.576;2024-03-02T12:38:11;5.40;;;4.70;;
691;SDS011;70475;50.084;8.576;2024-03-02T12:40:39;5.10;;;3.60;;
691;SDS011;70475;50.084;8.576;2024-03-02T12:43:07;5.53;;;3.60;;
691;SDS011;70475;50.084;8.576;2024-03-02T12:45:35;6.27;;;3.43;;
691;SDS011;70475;50.084;8.576;2024-03-02T12:48:04;3.30;;;2.43;;
691;SDS011;70475;50.084;8.576;2024-03-02T12:50:32;4.73;;;2.30;;
691;SDS011;70475;50.084;8.576;2024-03-02T12:53:00;5.10;;;3.10;;
691;SDS011;70475;50.084;8.576;2024-03-02T12:55:28;4.03;;;2.63;;
691;SDS011;70475;50.084;8.576;2024-03-02T12:57:57;6.10;;;3.00;;
691;SDS011;70475;50.084;8.576;2024-03-02T13:00:26;3.87;;;2.80;;
691;SDS011;70475;50.084;8.576;2024-03-02T13:02:53;5.17;;;4.07;;
691;SDS011;70475;50.084;8.576;2024-03-02T13:05:31;5.00;;;2.30;;
691;SDS011;70475;50.084;8.576;2024-03-02T13:07:59;6.07;;;3.27;;
691;SDS011;70475;50.084;8.576;2024-03-02T13:10:29;6.80;;;3.60;;
691;SDS011;70475;50.084;8.576;2024-03-02T13:12:58;5.90;;;3.50;;
691;SDS011;70475;50.084;8.576;2024-03-02T13:15:26;13.10;;;3.13;;
691;SDS011;70475;50.084;8.576;2024-03-02T13:17:53;2.40;;;1.90;;
691;SDS011;70475;50.084;8.576;2024-03-02T13:20:21;3.23;;;2.20;;
691;SDS011;70475;50.084;8.576;2024-03-02T13:22:53;5.97;;;3.63;;
691;SDS011;70475;50.084;8.576;2024-03-02T13:25:20;4.80;;;2.00;;
691;SDS011;70475;50.084;8.576;2024-03-02T13:27:48;4.90;;;2.13;;
691;SDS011;70475;50.084;8.576;2024-03-02T13:30:16;3.93;;;2.60;;
691;SDS011;70475;50.084;8.576;2024-03-02T13:32:43;4.03;;;1.57;;
691;SDS011;70475;50.084;8.576;2024-03-02T13:35:11;1.80;;;1.70;;
691;SDS011;70475;50.084;8.576;2024-03-02T13:37:39;2.73;;;1.90;;
691;SDS011;70475;50.084;8.576;2024-03-02T13:40:10;2.63;;;1.73;;
691;SDS011;70475;50.084;8.576;2024-03-02T13:42:40;6.53;;;2.80;;
691;SDS011;70475;50.084;8.576;2024-03-02T13:45:07;4.50;;;3.10;;
691;SDS011;70475;50.084;8.576;2024-03-02T13:47:35;3.80;;;1.73;;
691;SDS011;70475;50.084;8.576;2024-03-02T13:50:03;3.20;;;2.40;;
691;SDS011;70475;50.084;8.576;2024-03-02T13:52:32;3.70;;;2.30;;
691;SDS011;70475;50.084;8.576;2024-03-02T13:55:00;4.20;;;2.60;;
691;SDS011;70475;50.084;8.576;2024-03-02T13:57:29;2.07;;;1.30;;
691;SDS011;70475;50.084;8.576;2024-03-02T13:59:57;2.73;;;1.47;;
691;SDS011;70475;50.084;8.576;2024-03-02T14:02:24;2.20;;;1.70;;
691;SDS011;70475;50.084;8.576;2024-03-02T14:04:52;5.10;;;1.77;;
691;SDS011;70475;50.084;8.576;2024-03-02T14:07:20;2.33;;;1.27;;
691;SDS011;70475;50.084;8.576;2024-03-02T14:09:47;1.83;;;1.70;;
691;SDS011;70475;50.084;8.576;2024-03-02T14:12:15;2.53;;;1.47;;
691;SDS011;70475;50.084;8.576;2024-03-02T14:14:46;2.10;;;1.43;;
691;SDS011;70475;50.084;8.576;2024-03-02T14:17:17;5.03;;;1.70;;
691;SDS011;70475;50.084;8.576;2024-03-02T14:19:44;1.60;;;1.37;;
691;SDS011;70475;50.084;8.576;2024-03-02T14:22:12;3.90;;;1.80;;
691;SDS011;70475;50.084;8.576;2024-03-02T14:24:43;1.80;;;1.23;;
691;SDS011;70475;50.084;8.576;2024-03-02T14:27:10;1.77;;;1.60;;
691;SDS011;70475;50.084;8.576;2024-03-02T14:29:59;1.73;;;1.30;;
691;SDS011;70475;50.084;8.576;2024-03-02T14:32:26;1.67;;;1.20;;
691;SDS011;70475;50.084;8.576;2024-03-02T14:34:54;2.00;;;1.20;;
691;SDS011;70475;50.084;8.576;2024-03-02T14:37:21;2.50;;;1.13;;
691;SDS011;70475;50.084;8.576;2024-03-02T14:39:49;3.23;;;1.43;;
691;SDS011;70475;50.084;8.576;2024-03-02T14:42:32;2.73;;;1.47;;
691;SDS011;70475;50.084;8.576;2024-03-02T14:45:01;2.90;;;2.10;;
691;SDS011;70475;50.084;8.576;2024-03-02T14:47:31;2.73;;;1.97;;
691;SDS011;70475;50.084;8.576;2024-03-02T14:50:00;1.87;;;1.13;;
691;SDS011;70475;50.084;8.576;2024-03-02T14:52:32;2.10;;;1.40;;
691;SDS011;70475;50.084;8.576;2024-03-02T14:54:59;2.20;;;1.30;;
691;SDS011;70475;50.084;8.576;2024-03-02T14:57:29;1.50;;;1.20;;
691;SDS011;70475;50.084;8.576;2024-03-02T14:59:57;1.67;;;1.20;;
691;SDS011;70475;50.084;8.576;2024-03-02T15:02:26;2.43;;;1.23;;
691;SDS011;70475;50.084;8.576;2024-03-02T15:04:54;2.00;;;1.70;;
691;SDS011;70475;50.084;8.576;2024-03-02T15:07:22;2.30;;;1.30;;
691;SDS011;70475;50.084;8.576;2024-03-02T15:09:50;1.87;;;1.17;;
691;SDS011;70475;50.084;8.576;2024-03-02T15:12:33;2.20;;;1.13;;
691;SDS011;70475;50.084;8.576;2024-03-02T15:15:01;1.37;;;0.93;;
691;SDS011;70475;50.084;8.576;2024-03-02T15:17:31;3.50;;;1.30;;
691;SDS011;70475;50.084;8.576;2024-03-02T15:19:58;0.77;;;0.63;;
691;SDS011;70475;50.084;8.576;2024-03-02T15:22:26;2.03;;;0.90;;
691;SDS011;70475;50.084;8.576;2024-03-02T15:24:53;2.03;;;1.00;;
691;SDS011;70475;50.084;8.576;2024-03-02T15:27:21;1.60;;;1.00;;
691;SDS011;70475;50.084;8.576;2024-03-02T15:29:49;2.77;;;1.30;;
691;SDS011;70475;50.084;8.576;2024-03-02T15:32:18;1.20;;;0.97;;
691;SDS011;70475;50.084;8.576;2024-03-02T15:34:47;1.77;;;1.40;;
691;SDS011;70475;50.084;8.576;2024-03-02T15:37:15;1.63;;;1.20;;
691;SDS011;70475;50.084;8.576;2024-03-02T15:39:43;1.67;;;0.90;;